Terminal Aerodrome Forecast
Issued by NWS

Home | Current Version | Previous Version | Text Only | Print | Product List | Glossary On
Versions: 1 2 3 4 5 6 7 8 9 10 11 12 13 14 15 16 17 18 19
000
FTUS44 KHGX 010520
TAFSGR
TAF
KSGR 010520Z 0106/0206 15010KT P6SM BKN120
     FM011000 VRB02KT P6SM VCSH BKN025
     FM011500 14006KT P6SM BKN025
     FM011800 13007KT P6SM VCTS SCT025 BKN040CB
      TEMPO 0120/0124 -TSRA
     FM020200 13006KT P6SM FEW025 BKN150=

USA.gov is the U.S. government's official web portal to all federal, state and local government web resources and services.